Victorica, Argentina
Current Conditions -  °F | °C
As of 10:00 PM on Saturday 25 Oct 2014 (Local Time) from SASJ Reporting Station
Clear Clear  
Wind Chill: 81°   Ceiling: Unl
Heat Index: 81°   Visibility: 6mi
Dew Point: 55°   Wind: 5mph
Humidity: 42%   Direction: 270°W
Pressure: 29.88"   Gusts: NA
Location:  23.62°S, 63.22°W
Report Text: SASJ 260100Z 27004KT CAVOK 27/13 Q1012
Loading
Personal Weather Stations






























Interactive Weather Map
Tropical Storm Tracking
New forecast layout! Learn more

10-Day Weather Forecast

Advertisements
Track Severe Weather on mobile